Main page
METAR-TAF:

METAR-TAF

Airports :

Tiree, Scotland

Tiree Airport

latitude: 56-30N, longitude: 006-53W, elevation: 12 m

Current weather observation

The report was made 39 minutes ago, at 13:20 UTC
Wind 21 kt from the West
Temperature 12°C
Humidity 82%
Pressure 1006 hPa
Visibility 10 km or more
Scattered clouds at a height of 3100 ft
Scattered clouds at a height of 4900 ft

METAR: EGPU 241320Z 26021KT 9999 SCT031 SCT049 12/09 Q1006

Time: 14:59 (13:59 UTC)

Forecast

The report was made 2 hours and 57 minutes ago, at 11:02 UTC
Forecast valid from 24 at 12 UTC to 24 at 18 UTC
Wind 22 kt from the West with gusts up to 32 kt
Visibility 10 km or more
Few clouds at a height of 2500 ft
Scattered clouds at a height of 4500 ft
Probability 40% :
Temporary
from 24 at 12 UTC to 24 at 18 UTC
Visibility: 7000 m
rain showers

TAF: EGPU 241102Z 2412/2418 27022G32KT 9999 FEW025 SCT045 PROB40 TEMPO 2412/2418 7000 SHRA

Weather observations and forecasts of more than 4000 airports (METAR and TAF reports).

The available stations are represented by yellow and red dots on the map.

Hover mouse over dot to see the name of the station.

Then click to see weather observations and forecasts.

To change the map : click on the green buttons with a black cross to zoom in, on the green button with a dash to zoom out, or on the green arrows for adjacent maps.


METAR-TAF: